createdAt,value
2023-06-02T00:01:53.318Z,13.60
2023-06-02T00:04:25.414Z,13.70
2023-06-02T00:06:54.755Z,13.80
2023-06-02T00:09:22.156Z,13.90
2023-06-02T00:11:49.421Z,13.90
2023-06-02T00:14:16.731Z,13.80
2023-06-02T00:16:46.738Z,13.90
2023-06-02T00:19:15.598Z,13.80
2023-06-02T00:21:43.478Z,13.70
2023-06-02T00:24:10.910Z,13.70
2023-06-02T00:26:38.863Z,13.70
2023-06-02T00:29:06.363Z,13.80
2023-06-02T00:31:36.052Z,13.80
2023-06-02T00:34:03.677Z,13.70
2023-06-02T00:36:30.870Z,13.50
2023-06-02T00:38:58.278Z,13.50
2023-06-02T00:41:27.144Z,13.50
2023-06-02T00:44:00.029Z,13.50
2023-06-02T00:46:27.403Z,13.30
2023-06-02T00:48:54.645Z,13.30
2023-06-02T00:51:22.126Z,13.30
2023-06-02T00:53:49.353Z,13.30
2023-06-02T00:56:18.930Z,13.30
2023-06-02T00:58:46.778Z,13.20
2023-06-02T01:01:14.259Z,13.20
2023-06-02T01:03:44.587Z,13.10
2023-06-02T01:06:16.831Z,13.10
2023-06-02T01:08:46.166Z,13.20
2023-06-02T01:11:13.920Z,13.20
2023-06-02T01:13:42.322Z,13.30
2023-06-02T01:16:14.708Z,13.30
2023-06-02T01:18:48.140Z,13.20
2023-06-02T01:21:22.940Z,13.10
2023-06-02T01:23:55.685Z,13.00
2023-06-02T01:26:23.045Z,12.90
2023-06-02T01:28:51.596Z,12.90
2023-06-02T01:31:27.635Z,12.80
2023-06-02T01:34:02.659Z,12.80
2023-06-02T01:36:34.355Z,12.80
2023-06-02T01:39:03.826Z,12.90
2023-06-02T01:41:34.173Z,13.00
2023-06-02T01:44:04.246Z,13.10
2023-06-02T01:46:31.613Z,13.00
2023-06-02T01:48:58.824Z,13.00
2023-06-02T01:51:26.414Z,12.90
2023-06-02T01:53:53.632Z,12.80
2023-06-02T01:56:21.716Z,12.80
2023-06-02T01:58:54.215Z,12.80
2023-06-02T02:01:22.946Z,12.80
2023-06-02T02:03:51.886Z,12.70
2023-06-02T02:06:20.011Z,12.70
2023-06-02T02:08:47.186Z,12.70
2023-06-02T02:11:14.421Z,12.80
2023-06-02T02:13:41.776Z,12.70
2023-06-02T02:16:10.126Z,12.60
2023-06-02T02:18:39.370Z,12.70
2023-06-02T02:21:07.808Z,12.70
2023-06-02T02:23:35.123Z,12.60
2023-06-02T02:26:02.524Z,12.50
2023-06-02T02:28:31.285Z,12.60
2023-06-02T02:31:00.203Z,12.50
2023-06-02T02:33:29.483Z,12.50
2023-06-02T02:35:56.957Z,12.50
2023-06-02T02:38:26.219Z,12.50
2023-06-02T02:40:53.887Z,12.50
2023-06-02T02:43:23.192Z,12.50
2023-06-02T02:45:52.251Z,12.50
2023-06-02T02:48:19.815Z,12.30
2023-06-02T02:50:47.651Z,12.00
2023-06-02T02:53:17.318Z,12.10
2023-06-02T02:55:45.597Z,12.10
2023-06-02T02:58:20.183Z,12.20
2023-06-02T03:00:47.977Z,12.30
2023-06-02T03:03:15.664Z,12.10
2023-06-02T03:05:43.257Z,12.10
2023-06-02T03:08:14.063Z,12.10
2023-06-02T03:10:42.531Z,12.10
2023-06-02T03:13:09.716Z,12.20
2023-06-02T03:15:37.886Z,12.30
2023-06-02T03:18:06.433Z,12.50
2023-06-02T03:20:34.111Z,12.60
2023-06-02T03:23:02.012Z,12.50
2023-06-02T03:25:29.810Z,12.40
2023-06-02T03:27:57.763Z,12.40
2023-06-02T03:30:25.185Z,12.50
2023-06-02T03:32:58.017Z,12.40
2023-06-02T03:35:28.170Z,12.50
2023-06-02T03:37:56.779Z,12.30
2023-06-02T03:40:25.563Z,12.10
2023-06-02T03:42:53.639Z,12.00
2023-06-02T03:45:21.310Z,12.00
2023-06-02T03:47:48.989Z,11.90
2023-06-02T03:50:18.375Z,11.90
2023-06-02T03:52:45.985Z,12.00
2023-06-02T03:55:14.626Z,12.10
2023-06-02T03:57:44.250Z,12.30
2023-06-02T04:00:12.631Z,12.50
2023-06-02T04:02:42.814Z,12.70
2023-06-02T04:05:15.869Z,12.80
2023-06-02T04:07:44.503Z,12.80
2023-06-02T04:10:12.007Z,13.00
2023-06-02T04:12:39.460Z,13.20
2023-06-02T04:15:07.844Z,13.30
2023-06-02T04:17:35.196Z,13.50
2023-06-02T04:20:03.023Z,13.70
2023-06-02T04:22:32.757Z,13.80
2023-06-02T04:24:59.959Z,14.00
2023-06-02T04:27:27.173Z,14.10
2023-06-02T04:29:54.590Z,14.20
2023-06-02T04:32:22.206Z,14.30
2023-06-02T04:34:52.131Z,14.50
2023-06-02T04:37:21.048Z,14.60
2023-06-02T04:39:54.445Z,14.70
2023-06-02T04:42:23.804Z,14.80
2023-06-02T04:44:52.877Z,14.90
2023-06-02T04:47:20.719Z,15.10
2023-06-02T04:49:48.104Z,15.20
2023-06-02T04:52:15.466Z,15.40
2023-06-02T04:54:44.540Z,15.50
2023-06-02T04:57:12.630Z,15.70
2023-06-02T04:59:40.771Z,15.80
2023-06-02T05:02:08.328Z,15.90
2023-06-02T05:04:37.106Z,16.10
2023-06-02T05:07:05.963Z,16.30
2023-06-02T05:09:33.206Z,16.30
2023-06-02T05:12:01.081Z,16.50
2023-06-02T05:14:29.183Z,16.70
2023-06-02T05:16:57.331Z,17.00
2023-06-02T05:19:24.661Z,17.10
2023-06-02T05:21:52.057Z,17.30
2023-06-02T05:24:19.574Z,17.40
2023-06-02T05:26:46.850Z,17.50
2023-06-02T05:29:15.597Z,17.70
2023-06-02T05:31:43.473Z,17.80
2023-06-02T05:34:12.274Z,17.80
2023-06-02T05:36:39.553Z,18.00
2023-06-02T05:39:08.189Z,18.00
2023-06-02T05:41:36.517Z,18.00
2023-06-02T05:44:03.982Z,18.10
2023-06-02T05:46:31.875Z,18.20
2023-06-02T05:49:08.099Z,18.30
2023-06-02T05:51:36.827Z,18.40
2023-06-02T05:54:07.699Z,18.50
2023-06-02T05:56:35.320Z,18.80
2023-06-02T05:59:02.959Z,18.90
2023-06-02T06:01:31.901Z,19.10
2023-06-02T06:03:59.601Z,19.20
2023-06-02T06:06:28.780Z,19.30
2023-06-02T06:08:56.172Z,19.30
2023-06-02T06:11:23.979Z,19.40
2023-06-02T06:13:51.565Z,19.70
2023-06-02T06:16:18.998Z,19.70
2023-06-02T06:18:46.278Z,19.80
2023-06-02T06:21:14.509Z,19.80
2023-06-02T06:23:42.643Z,19.70
2023-06-02T06:26:11.130Z,19.80
2023-06-02T06:28:38.957Z,19.80
2023-06-02T06:31:06.340Z,20.00
2023-06-02T06:33:33.832Z,20.10
2023-06-02T06:36:01.636Z,20.00
2023-06-02T06:38:29.585Z,20.20
2023-06-02T06:40:57.598Z,20.30
2023-06-02T06:43:25.742Z,20.30
2023-06-02T06:46:00.690Z,20.20
2023-06-02T06:48:30.176Z,20.30
2023-06-02T06:50:57.833Z,20.40
2023-06-02T06:53:25.158Z,20.50
2023-06-02T06:55:52.627Z,20.50
2023-06-02T06:58:19.940Z,20.60
2023-06-02T07:00:47.474Z,20.60
2023-06-02T07:03:14.908Z,20.80
2023-06-02T07:05:44.896Z,20.90
2023-06-02T07:08:12.497Z,20.70
2023-06-02T07:10:40.271Z,20.60
2023-06-02T07:13:07.638Z,21.00
2023-06-02T07:15:35.006Z,21.10
2023-06-02T07:18:02.512Z,20.90
2023-06-02T07:20:29.806Z,20.80
2023-06-02T07:22:57.199Z,21.00
2023-06-02T07:25:25.724Z,21.20
2023-06-02T07:27:54.871Z,21.30
2023-06-02T07:30:22.322Z,21.30
2023-06-02T07:32:49.622Z,21.30
2023-06-02T07:35:17.429Z,21.30
2023-06-02T07:37:44.769Z,21.60
2023-06-02T07:40:12.447Z,21.80
2023-06-02T07:42:40.189Z,21.80
2023-06-02T07:45:08.362Z,21.80
2023-06-02T07:47:35.764Z,21.90
2023-06-02T07:50:04.446Z,22.20
2023-06-02T07:52:31.816Z,22.10
2023-06-02T07:54:59.105Z,22.10
2023-06-02T07:57:26.393Z,22.10
2023-06-02T07:59:55.428Z,22.30
2023-06-02T08:02:23.693Z,22.40
2023-06-02T08:04:51.453Z,22.10
2023-06-02T08:07:19.842Z,22.20
2023-06-02T08:09:47.109Z,22.20
2023-06-02T08:12:14.457Z,22.30
2023-06-02T08:14:43.881Z,22.60
2023-06-02T08:17:11.518Z,22.50
2023-06-02T08:19:38.774Z,22.40
2023-06-02T08:22:06.338Z,22.30
2023-06-02T08:24:33.700Z,22.40
2023-06-02T08:27:02.043Z,22.50
2023-06-02T08:29:31.372Z,22.50
2023-06-02T08:31:58.918Z,22.60
2023-06-02T08:34:27.203Z,22.70
2023-06-02T08:36:59.067Z,22.80
2023-06-02T08:39:27.661Z,22.80
2023-06-02T08:42:01.465Z,22.80
2023-06-02T08:44:30.794Z,22.90
2023-06-02T08:46:59.049Z,22.90
2023-06-02T08:49:29.080Z,22.90
2023-06-02T08:52:03.251Z,23.20
2023-06-02T08:54:34.634Z,23.30
2023-06-02T08:57:05.827Z,23.10
2023-06-02T08:59:33.735Z,23.30
2023-06-02T09:02:02.251Z,23.40
2023-06-02T09:04:30.172Z,23.40
2023-06-02T09:07:13.141Z,23.60
2023-06-02T09:09:45.944Z,23.80
2023-06-02T09:12:14.068Z,24.10
2023-06-02T09:14:41.968Z,24.10
2023-06-02T09:17:29.866Z,23.80
2023-06-02T09:20:11.624Z,23.60
2023-06-02T09:22:57.859Z,23.70
2023-06-02T09:25:30.301Z,23.80
2023-06-02T09:27:59.315Z,24.00
2023-06-02T09:30:27.966Z,24.20
2023-06-02T09:33:16.199Z,24.20
2023-06-02T09:35:46.059Z,24.50
2023-06-02T09:38:16.587Z,24.50
2023-06-02T09:40:45.184Z,24.60
2023-06-02T09:43:14.647Z,24.70
2023-06-02T09:45:51.326Z,24.60
2023-06-02T09:48:20.432Z,24.90
2023-06-02T09:50:48.113Z,24.70
2023-06-02T09:53:17.421Z,24.80
2023-06-02T09:55:47.152Z,24.70
2023-06-02T09:58:14.605Z,25.10
2023-06-02T10:00:42.479Z,25.30
2023-06-02T10:03:10.459Z,25.00
2023-06-02T10:05:40.606Z,24.80
2023-06-02T10:08:49.899Z,24.80
2023-06-02T10:11:30.309Z,25.00
2023-06-02T10:14:17.483Z,25.40
2023-06-02T10:17:14.719Z,25.60
2023-06-02T10:19:57.233Z,25.70
2023-06-02T10:22:47.287Z,25.50
2023-06-02T10:25:17.546Z,25.60
2023-06-02T10:27:45.907Z,25.70
2023-06-02T10:30:19.302Z,26.00
2023-06-02T10:32:50.402Z,25.80
2023-06-02T10:35:19.727Z,26.00
2023-06-02T10:37:47.098Z,26.20
2023-06-02T10:40:16.736Z,26.10
2023-06-02T10:43:19.627Z,25.90
2023-06-02T10:45:47.032Z,26.30
2023-06-02T10:48:39.946Z,26.10
2023-06-02T10:51:09.181Z,26.20
2023-06-02T10:54:08.631Z,26.30
2023-06-02T10:56:45.282Z,26.70
2023-06-02T10:59:32.825Z,26.60
2023-06-02T11:02:01.808Z,26.60
2023-06-02T11:04:36.832Z,26.90
2023-06-02T11:07:22.834Z,27.10
2023-06-02T11:10:01.671Z,27.10
2023-06-02T11:12:55.687Z,26.90
2023-06-02T11:15:23.236Z,26.70
2023-06-02T11:17:50.623Z,26.90
2023-06-02T11:20:19.921Z,27.30
2023-06-02T11:22:48.217Z,27.40
2023-06-02T11:25:17.787Z,27.40
2023-06-02T11:27:49.142Z,27.20
2023-06-02T11:30:19.701Z,27.20
2023-06-02T11:32:52.994Z,27.00
2023-06-02T11:35:27.075Z,26.80
2023-06-02T11:38:12.742Z,27.20
2023-06-02T11:40:40.222Z,27.30
2023-06-02T11:43:07.617Z,27.20
2023-06-02T11:45:36.400Z,27.30
2023-06-02T11:48:12.834Z,27.40
2023-06-02T11:50:40.418Z,26.90
2023-06-02T11:53:16.746Z,26.90
2023-06-02T11:55:44.721Z,27.60
2023-06-02T11:58:28.781Z,28.10
2023-06-02T12:01:11.458Z,28.10
2023-06-02T12:03:38.775Z,27.70
2023-06-02T12:06:14.915Z,27.10
2023-06-02T12:08:43.707Z,27.50
2023-06-02T12:11:18.781Z,27.80
2023-06-02T12:14:03.159Z,27.90
2023-06-02T12:16:31.357Z,27.60
2023-06-02T12:19:22.264Z,28.00
2023-06-02T12:21:55.096Z,28.20
2023-06-02T12:24:40.222Z,28.40
2023-06-02T12:27:08.948Z,28.80
2023-06-02T12:29:37.684Z,28.80
2023-06-02T12:32:09.115Z,28.80
2023-06-02T12:34:36.400Z,29.40
2023-06-02T12:37:04.138Z,29.20
2023-06-02T12:39:32.345Z,28.50
2023-06-02T12:42:00.405Z,28.90
2023-06-02T12:44:27.968Z,29.90
2023-06-02T12:46:56.342Z,30.20
2023-06-02T12:49:23.882Z,30.50
2023-06-02T12:51:51.204Z,31.40
2023-06-02T12:54:18.607Z,32.10
2023-06-02T12:56:46.070Z,32.60
2023-06-02T12:59:14.975Z,32.80
2023-06-02T13:01:43.776Z,33.20
2023-06-02T13:04:12.359Z,32.80
2023-06-02T13:06:40.071Z,33.60
2023-06-02T13:09:07.493Z,33.60
2023-06-02T13:11:34.684Z,32.60
2023-06-02T13:14:02.053Z,33.10
2023-06-02T13:16:29.558Z,33.50
2023-06-02T13:18:57.873Z,33.10
2023-06-02T13:21:25.190Z,31.80
2023-06-02T13:23:58.695Z,30.70
2023-06-02T13:26:27.776Z,31.20
2023-06-02T13:28:54.914Z,30.80
2023-06-02T13:31:22.248Z,29.70
2023-06-02T13:33:50.719Z,30.50
2023-06-02T13:36:18.101Z,30.60
2023-06-02T13:38:46.797Z,30.20
2023-06-02T13:41:14.136Z,30.60
2023-06-02T13:43:41.395Z,30.80
2023-06-02T13:46:08.988Z,30.40
2023-06-02T13:48:36.987Z,30.50
2023-06-02T13:51:06.212Z,30.30
2023-06-02T13:53:34.299Z,31.20
2023-06-02T13:56:01.742Z,32.10
2023-06-02T13:58:33.245Z,33.10
2023-06-02T14:01:00.648Z,33.60
2023-06-02T14:03:27.995Z,32.80
2023-06-02T14:05:55.898Z,32.70
2023-06-02T14:08:23.187Z,32.50
2023-06-02T14:10:50.810Z,33.40
2023-06-02T14:13:18.460Z,33.90
2023-06-02T14:15:46.344Z,34.30
2023-06-02T14:18:13.943Z,35.00
2023-06-02T14:20:41.384Z,35.30
2023-06-02T14:23:08.596Z,35.10
2023-06-02T14:25:35.947Z,33.90
2023-06-02T14:28:03.577Z,31.60
2023-06-02T14:30:30.971Z,30.10
2023-06-02T14:32:58.256Z,32.80
2023-06-02T14:35:26.381Z,33.80
2023-06-02T14:37:53.738Z,33.90
2023-06-02T14:40:21.795Z,29.90
2023-06-02T14:42:49.069Z,31.90
2023-06-02T14:45:16.336Z,32.60
2023-06-02T14:47:43.742Z,33.30
2023-06-02T14:50:11.484Z,33.40
2023-06-02T14:52:38.874Z,34.00
2023-06-02T14:55:07.385Z,34.00
2023-06-02T14:57:34.879Z,34.90
2023-06-02T15:00:02.213Z,33.90
2023-06-02T15:02:29.846Z,33.10
2023-06-02T15:04:57.248Z,33.10
2023-06-02T15:07:24.742Z,32.70
2023-06-02T15:09:52.065Z,30.70
2023-06-02T15:12:19.443Z,31.90
2023-06-02T15:14:46.950Z,33.10
2023-06-02T15:17:14.392Z,33.80
2023-06-02T15:19:42.480Z,33.10
2023-06-02T15:22:10.170Z,33.30
2023-06-02T15:24:37.647Z,33.70
2023-06-02T15:27:06.504Z,33.30
2023-06-02T15:29:34.137Z,33.80
2023-06-02T15:32:01.510Z,33.00
2023-06-02T15:34:28.805Z,33.60
2023-06-02T15:36:56.290Z,33.90
2023-06-02T15:39:23.783Z,34.00
2023-06-02T15:41:51.179Z,34.90
2023-06-02T15:44:18.744Z,33.70
2023-06-02T15:46:46.192Z,33.10
2023-06-02T15:49:13.394Z,33.30
2023-06-02T15:51:40.864Z,32.90
2023-06-02T15:54:08.160Z,32.80
2023-06-02T15:56:35.819Z,33.10
2023-06-02T15:59:03.117Z,33.00
2023-06-02T16:01:30.975Z,31.90
2023-06-02T16:03:58.557Z,31.00
2023-06-02T16:06:26.323Z,30.70
2023-06-02T16:08:53.571Z,31.40
2023-06-02T16:11:20.816Z,31.50
2023-06-02T16:13:48.171Z,31.60
2023-06-02T16:16:15.603Z,31.70
2023-06-02T16:18:42.890Z,31.10
2023-06-02T16:21:10.326Z,29.70
2023-06-02T16:23:37.674Z,28.20
2023-06-02T16:26:06.795Z,27.40
2023-06-02T16:28:34.478Z,26.70
2023-06-02T16:31:03.001Z,26.50
2023-06-02T16:33:30.493Z,26.00
2023-06-02T16:35:57.971Z,25.70
2023-06-02T16:38:25.320Z,25.50
2023-06-02T16:40:54.186Z,25.00
2023-06-02T16:43:21.503Z,24.70
2023-06-02T16:45:50.156Z,24.50
2023-06-02T16:48:17.753Z,24.30
2023-06-02T16:50:45.546Z,24.10
2023-06-02T16:53:12.808Z,23.90
2023-06-02T16:55:40.075Z,23.80
2023-06-02T16:58:07.412Z,23.60
2023-06-02T17:00:34.770Z,23.60
2023-06-02T17:03:02.206Z,23.50
2023-06-02T17:05:29.778Z,23.50
2023-06-02T17:07:57.714Z,23.20
2023-06-02T17:10:25.049Z,23.10
2023-06-02T17:12:52.531Z,23.10
2023-06-02T17:15:19.910Z,23.00
2023-06-02T17:17:47.279Z,22.90
2023-06-02T17:20:14.845Z,22.70
2023-06-02T17:22:42.180Z,22.70
2023-06-02T17:25:10.384Z,22.60
2023-06-02T17:27:39.187Z,22.40
2023-06-02T17:30:08.370Z,22.20
2023-06-02T17:32:37.512Z,22.20
2023-06-02T17:35:05.284Z,22.10
2023-06-02T17:37:34.312Z,21.90
2023-06-02T17:40:06.186Z,21.70
2023-06-02T17:42:34.156Z,21.60
2023-06-02T17:45:02.323Z,21.60
2023-06-02T17:47:29.588Z,21.50
2023-06-02T17:49:57.195Z,21.40
2023-06-02T17:52:25.469Z,21.30
2023-06-02T17:54:53.280Z,21.20
2023-06-02T17:57:21.244Z,21.10
2023-06-02T17:59:51.487Z,21.00
2023-06-02T18:02:19.886Z,20.90
2023-06-02T18:04:48.292Z,21.00
2023-06-02T18:07:15.685Z,21.00
2023-06-02T18:09:42.988Z,21.00
2023-06-02T18:12:10.482Z,20.80
2023-06-02T18:14:37.778Z,20.90
2023-06-02T18:17:05.355Z,20.80
2023-06-02T18:19:35.321Z,20.50
2023-06-02T18:22:02.871Z,20.50
2023-06-02T18:24:31.436Z,20.50
2023-06-02T18:27:00.322Z,20.50
2023-06-02T18:29:28.445Z,20.40
2023-06-02T18:31:55.818Z,20.40
2023-06-02T18:34:23.131Z,20.40
2023-06-02T18:36:50.387Z,20.40
2023-06-02T18:39:17.593Z,20.30
2023-06-02T18:41:45.363Z,20.30
2023-06-02T18:44:12.587Z,20.10
2023-06-02T18:46:40.022Z,20.10
2023-06-02T18:49:07.483Z,20.00
2023-06-02T18:51:35.344Z,20.00
2023-06-02T18:54:02.759Z,19.90
2023-06-02T18:56:30.169Z,19.70
2023-06-02T18:58:57.536Z,19.80
2023-06-02T19:01:27.700Z,19.60
2023-06-02T19:03:56.188Z,19.60
2023-06-02T19:06:23.635Z,19.60
2023-06-02T19:08:50.920Z,19.60
2023-06-02T19:11:19.315Z,19.40
2023-06-02T19:13:47.250Z,19.30
2023-06-02T19:16:15.232Z,19.20
2023-06-02T19:18:43.861Z,19.20
2023-06-02T19:21:11.889Z,19.20
2023-06-02T19:23:39.579Z,19.10
2023-06-02T19:26:07.113Z,19.10
2023-06-02T19:28:34.626Z,19.00
2023-06-02T19:31:03.013Z,19.00
2023-06-02T19:33:30.276Z,19.00
2023-06-02T19:35:57.702Z,18.90
2023-06-02T19:38:26.867Z,18.90
2023-06-02T19:40:54.187Z,18.70
2023-06-02T19:43:21.576Z,18.70
2023-06-02T19:45:48.959Z,18.70
2023-06-02T19:48:17.007Z,18.70
2023-06-02T19:50:44.386Z,18.70
2023-06-02T19:53:11.658Z,18.60
2023-06-02T19:55:39.207Z,18.60
2023-06-02T19:58:07.035Z,18.50
2023-06-02T20:00:34.430Z,18.60
2023-06-02T20:03:01.940Z,18.50
2023-06-02T20:05:29.539Z,18.50
2023-06-02T20:07:56.857Z,18.40
2023-06-02T20:10:25.086Z,18.40
2023-06-02T20:12:52.377Z,18.30
2023-06-02T20:15:19.712Z,18.30
2023-06-02T20:17:46.975Z,18.30
2023-06-02T20:20:14.650Z,18.10
2023-06-02T20:22:42.074Z,18.10
2023-06-02T20:25:09.479Z,18.10
2023-06-02T20:27:36.760Z,18.10
2023-06-02T20:30:05.111Z,18.00
2023-06-02T20:32:32.394Z,17.90
2023-06-02T20:34:59.891Z,17.90
2023-06-02T20:37:27.613Z,17.80
2023-06-02T20:39:54.908Z,17.80
2023-06-02T20:42:22.989Z,17.60
2023-06-02T20:44:50.794Z,17.60
2023-06-02T20:47:18.123Z,17.50
2023-06-02T20:49:45.374Z,17.40
2023-06-02T20:52:12.568Z,17.30
2023-06-02T20:54:39.888Z,17.20
2023-06-02T20:57:08.274Z,17.20
2023-06-02T20:59:35.566Z,17.10
2023-06-02T21:02:02.887Z,17.00
2023-06-02T21:04:30.178Z,16.90
2023-06-02T21:06:58.414Z,16.80
2023-06-02T21:09:26.605Z,16.80
2023-06-02T21:11:55.180Z,16.70
2023-06-02T21:14:22.433Z,16.60
2023-06-02T21:16:49.948Z,16.60
2023-06-02T21:19:17.514Z,16.50
2023-06-02T21:21:44.818Z,16.50
2023-06-02T21:24:12.107Z,16.60
2023-06-02T21:26:39.461Z,16.60
2023-06-02T21:29:06.681Z,16.50
2023-06-02T21:31:34.056Z,16.50
2023-06-02T21:34:01.325Z,16.50
2023-06-02T21:36:28.687Z,16.40
2023-06-02T21:38:56.023Z,16.30
2023-06-02T21:41:23.233Z,16.30
2023-06-02T21:43:50.633Z,16.20
2023-06-02T21:46:18.025Z,16.10
2023-06-02T21:48:45.473Z,16.20
2023-06-02T21:51:15.772Z,16.20
2023-06-02T21:53:43.658Z,16.10
2023-06-02T21:56:10.961Z,16.00
2023-06-02T21:58:38.244Z,16.10
2023-06-02T22:01:06.024Z,16.00
2023-06-02T22:03:33.911Z,15.90
2023-06-02T22:06:01.671Z,15.80
2023-06-02T22:08:28.998Z,15.80
2023-06-02T22:10:58.849Z,16.00
2023-06-02T22:13:26.110Z,15.90
2023-06-02T22:15:53.678Z,15.90
2023-06-02T22:18:21.028Z,15.90
2023-06-02T22:20:48.274Z,15.80
2023-06-02T22:23:15.829Z,15.90
2023-06-02T22:25:43.172Z,15.70
2023-06-02T22:28:11.522Z,15.70
2023-06-02T22:30:38.930Z,15.60
2023-06-02T22:33:06.244Z,15.80
2023-06-02T22:35:33.776Z,15.80
2023-06-02T22:38:01.024Z,15.80
2023-06-02T22:40:28.327Z,15.80
2023-06-02T22:42:55.615Z,15.70
2023-06-02T22:45:24.716Z,15.60
2023-06-02T22:47:52.016Z,15.40
2023-06-02T22:50:19.594Z,15.30
2023-06-02T22:52:46.789Z,15.10
2023-06-02T22:55:14.750Z,15.10
2023-06-02T22:57:42.268Z,15.00
2023-06-02T23:00:10.761Z,15.00
2023-06-02T23:02:38.007Z,15.10
2023-06-02T23:05:06.565Z,15.10
2023-06-02T23:07:33.814Z,15.10
2023-06-02T23:10:01.525Z,15.30
2023-06-02T23:12:28.823Z,15.30
2023-06-02T23:14:56.024Z,15.30
2023-06-02T23:17:24.571Z,15.20
2023-06-02T23:19:52.257Z,15.20
2023-06-02T23:22:19.886Z,15.20
2023-06-02T23:24:47.565Z,15.20
2023-06-02T23:27:15.443Z,15.20
2023-06-02T23:29:42.837Z,15.10
2023-06-02T23:32:10.179Z,15.00
2023-06-02T23:34:38.457Z,15.10
2023-06-02T23:37:06.861Z,15.10
2023-06-02T23:39:34.123Z,15.00
2023-06-02T23:42:01.425Z,15.00
2023-06-02T23:44:28.809Z,15.10
2023-06-02T23:46:56.603Z,15.10
2023-06-02T23:49:23.922Z,15.00
2023-06-02T23:51:53.307Z,15.00
2023-06-02T23:54:20.637Z,15.10
2023-06-02T23:56:48.056Z,15.20
2023-06-02T23:59:15.753Z,15.20
